Time;durP1;ratioP1;P1;durP2;ratioP2;P2;SDS_P1;SDS_P2;PMS_P1;PMS_P2;Temp;Humidity;BMP_temperature;BMP_pressure;BME280_temperature;BME280_humidity;BME280_pressure;Samples;Min_cycle;Max_cycle;Signal;HPM_P1;HPM_P2
2024/01/12 00:02:17;;;;;;;14.07;7.27;;;2.40;99.90;;;;;;4983036;28;20462;-67
2024/01/12 00:04:44;;;;;;;14.27;9.57;;;2.10;99.90;;;;;;4983743;28;20556;-68
2024/01/12 00:07:12;;;;;;;26.00;8.27;;;2.20;99.90;;;;;;4986677;28;20469;-68
2024/01/12 00:09:39;;;;;;;14.37;7.10;;;2.30;99.90;;;;;;4978169;28;20503;-68
2024/01/12 00:12:06;;;;;;;25.60;8.50;;;2.30;99.90;;;;;;4978520;28;20446;-67
2024/01/12 00:14:33;;;;;;;16.63;7.80;;;2.30;99.90;;;;;;4983440;28;20448;-67
2024/01/12 00:16:59;;;;;;;29.33;12.97;;;2.30;99.90;;;;;;4982974;28;20579;-67
2024/01/12 00:19:26;;;;;;;13.03;6.80;;;2.30;99.90;;;;;;4985388;28;20445;-69
2024/01/12 00:21:54;;;;;;;16.10;8.57;;;2.30;99.90;;;;;;4979131;28;21175;-68
2024/01/12 00:24:22;;;;;;;21.60;9.43;;;2.30;99.90;;;;;;4973192;28;20460;-68
2024/01/12 00:26:49;;;;;;;23.53;12.07;;;2.30;99.90;;;;;;4980164;28;20466;-67
2024/01/12 00:29:16;;;;;;;26.97;10.17;;;2.20;99.90;;;;;;4982660;28;20994;-67
2024/01/12 00:31:43;;;;;;;25.83;10.27;;;2.30;99.90;;;;;;4982366;28;20791;-68
2024/01/12 00:34:10;;;;;;;21.20;10.90;;;2.30;99.90;;;;;;4978226;28;20472;-67
2024/01/12 00:36:37;;;;;;;32.23;12.57;;;2.40;99.90;;;;;;4984806;28;20820;-68
2024/01/12 00:39:04;;;;;;;16.40;11.30;;;2.30;99.90;;;;;;4982056;28;20451;-68
2024/01/12 00:41:32;;;;;;;17.63;8.60;;;2.30;99.90;;;;;;4978406;28;20450;-68
2024/01/12 00:43:59;;;;;;;28.90;11.87;;;2.40;99.90;;;;;;4987967;28;20467;-68
2024/01/12 00:46:26;;;;;;;22.03;8.60;;;2.30;99.90;;;;;;4973279;28;21493;-68
2024/01/12 00:48:52;;;;;;;19.27;11.37;;;2.40;99.90;;;;;;4973362;28;20428;-68
2024/01/12 00:51:19;;;;;;;18.47;8.77;;;2.50;99.90;;;;;;4984301;28;20469;-68
2024/01/12 00:53:46;;;;;;;30.53;11.73;;;2.40;99.90;;;;;;4979205;28;20462;-68
2024/01/12 00:56:13;;;;;;;21.33;10.53;;;2.30;99.90;;;;;;4977233;28;20464;-68
2024/01/12 00:58:41;;;;;;;20.27;7.83;;;2.20;99.90;;;;;;4974458;28;20931;-68
2024/01/12 01:01:09;;;;;;;20.10;8.40;;;2.20;99.90;;;;;;4976628;28;20436;-68
2024/01/12 01:03:37;;;;;;;27.60;9.93;;;2.20;99.90;;;;;;4980009;28;20463;-68
2024/01/12 01:06:04;;;;;;;27.00;12.50;;;2.20;99.90;;;;;;4982880;28;20463;-68
2024/01/12 01:08:31;;;;;;;16.53;10.70;;;2.30;99.90;;;;;;4979211;28;20462;-68
2024/01/12 01:10:58;;;;;;;21.57;8.33;;;2.30;99.90;;;;;;4979222;28;20455;-68
2024/01/12 01:13:24;;;;;;;29.60;8.70;;;2.40;99.90;;;;;;4984788;28;20469;-68
2024/01/12 01:15:53;;;;;;;25.40;7.37;;;2.40;99.90;;;;;;4977192;28;20453;-67
2024/01/12 01:18:19;;;;;;;22.87;10.93;;;2.40;99.90;;;;;;4979082;28;21026;-68
2024/01/12 01:20:46;;;;;;;26.90;12.20;;;2.40;99.90;;;;;;4977066;28;20532;-69
2024/01/12 01:23:13;;;;;;;14.47;8.73;;;2.50;99.90;;;;;;4976659;28;20437;-69
2024/01/12 01:25:39;;;;;;;20.40;8.93;;;2.40;99.90;;;;;;4982806;28;20483;-69
2024/01/12 01:28:06;;;;;;;28.73;10.83;;;2.50;99.90;;;;;;4984457;28;20979;-68
2024/01/12 01:30:33;;;;;;;18.13;9.60;;;2.40;99.90;;;;;;4978309;28;20478;-68
2024/01/12 01:33:01;;;;;;;20.57;8.20;;;2.40;99.90;;;;;;4973595;28;20453;-69
2024/01/12 01:35:28;;;;;;;24.87;11.07;;;2.40;99.90;;;;;;4970348;28;20466;-68
2024/01/12 01:37:55;;;;;;;18.07;10.70;;;2.40;99.90;;;;;;4982363;28;20484;-68
2024/01/12 01:40:21;;;;;;;18.40;9.50;;;2.40;99.90;;;;;;4985720;28;20433;-68
2024/01/12 01:42:49;;;;;;;32.17;11.47;;;2.40;99.90;;;;;;4980770;28;20444;-68
2024/01/12 01:45:16;;;;;;;31.90;9.90;;;2.30;99.90;;;;;;4982175;28;20474;-67
2024/01/12 01:47:44;;;;;;;23.33;9.43;;;2.40;99.90;;;;;;4973830;28;20810;-67
2024/01/12 01:50:14;;;;;;;19.83;8.53;;;2.30;99.90;;;;;;4977590;28;20525;-68
2024/01/12 01:52:41;;;;;;;23.37;9.00;;;2.30;99.90;;;;;;4981318;28;20429;-68
2024/01/12 01:55:09;;;;;;;30.30;13.23;;;2.40;99.90;;;;;;4971196;28;20469;-68
2024/01/12 01:57:39;;;;;;;23.97;11.87;;;2.30;99.90;;;;;;4972417;28;20457;-67
2024/01/12 02:00:06;;;;;;;17.73;6.97;;;2.30;99.90;;;;;;4975268;28;20458;-69
2024/01/12 02:02:34;;;;;;;23.90;8.27;;;2.30;99.90;;;;;;4969404;28;20449;-68
2024/01/12 02:05:02;;;;;;;21.37;11.17;;;2.30;99.90;;;;;;4965741;28;20474;-67
2024/01/12 02:07:31;;;;;;;27.53;11.23;;;2.30;99.90;;;;;;4977490;28;20511;-68
2024/01/12 02:09:59;;;;;;;25.37;9.87;;;2.30;99.90;;;;;;4976631;28;20440;-68
2024/01/12 02:12:25;;;;;;;26.73;12.63;;;2.40;99.90;;;;;;4978844;28;23293;-68
2024/01/12 02:14:52;;;;;;;22.53;9.53;;;2.30;99.90;;;;;;4982523;28;20813;-67
2024/01/12 02:17:19;;;;;;;24.33;10.10;;;2.30;99.90;;;;;;4978063;28;20493;-67
2024/01/12 02:19:46;;;;;;;14.37;7.13;;;2.30;99.90;;;;;;4984605;28;20903;-67
2024/01/12 02:22:14;;;;;;;18.03;7.23;;;2.40;99.90;;;;;;4983430;28;20440;-67
2024/01/12 02:24:40;;;;;;;15.17;8.70;;;2.40;99.90;;;;;;4990037;28;20449;-67
2024/01/12 02:27:07;;;;;;;24.17;10.10;;;2.50;99.90;;;;;;4978872;28;20433;-67
2024/01/12 02:29:34;;;;;;;24.17;9.33;;;2.40;99.90;;;;;;4984799;28;20879;-68
2024/01/12 02:32:01;;;;;;;11.23;7.87;;;2.30;99.90;;;;;;4981619;28;20946;-68
2024/01/12 02:34:27;;;;;;;17.20;9.43;;;2.30;99.90;;;;;;4981173;28;20492;-67
2024/01/12 02:36:53;;;;;;;18.73;8.37;;;2.20;99.90;;;;;;4984494;28;20424;-67
2024/01/12 02:39:21;;;;;;;23.40;6.70;;;2.10;99.90;;;;;;4987345;28;20712;-68
2024/01/12 02:41:48;;;;;;;38.13;12.77;;;2.40;99.90;;;;;;4987072;28;20463;-68
2024/01/12 02:44:15;;;;;;;15.53;8.50;;;2.40;99.90;;;;;;4985226;28;20456;-68
2024/01/12 02:46:41;;;;;;;22.23;10.43;;;2.40;99.90;;;;;;4982390;28;20447;-68
2024/01/12 02:49:09;;;;;;;22.60;9.07;;;2.40;99.90;;;;;;4986860;28;20957;-68
2024/01/12 02:51:35;;;;;;;26.67;10.10;;;2.50;99.90;;;;;;4987001;28;20524;-67
2024/01/12 02:54:02;;;;;;;19.73;9.17;;;2.40;99.90;;;;;;4985143;28;20536;-68
2024/01/12 02:56:30;;;;;;;29.47;11.80;;;2.40;99.90;;;;;;4987125;28;20821;-68
2024/01/12 02:58:57;;;;;;;17.73;8.03;;;2.30;99.90;;;;;;4983586;28;20468;-68
2024/01/12 03:01:23;;;;;;;17.87;9.03;;;2.30;99.90;;;;;;4983283;28;20463;-69
2024/01/12 03:03:50;;;;;;;18.10;8.27;;;2.40;99.90;;;;;;4984985;28;20448;-67
2024/01/12 03:06:17;;;;;;;26.40;10.80;;;2.40;99.90;;;;;;4981668;28;20486;-68
2024/01/12 03:08:44;;;;;;;23.47;8.93;;;2.50;99.90;;;;;;4982903;28;20458;-67
2024/01/12 03:11:11;;;;;;;23.07;11.17;;;2.50;99.90;;;;;;4982679;28;20465;-68
2024/01/12 03:13:39;;;;;;;19.60;8.27;;;2.40;99.90;;;;;;4986244;28;20440;-68
2024/01/12 03:16:06;;;;;;;24.97;8.70;;;2.40;99.90;;;;;;4981725;28;20458;-68
2024/01/12 03:18:33;;;;;;;29.37;11.87;;;2.40;99.90;;;;;;4984183;28;20500;-68
2024/01/12 03:20:59;;;;;;;20.70;8.97;;;2.40;99.90;;;;;;4979873;28;20440;-68
2024/01/12 03:23:26;;;;;;;18.77;12.10;;;2.50;99.90;;;;;;4984978;28;20884;-68
2024/01/12 03:25:53;;;;;;;26.13;9.77;;;2.50;99.90;;;;;;4984211;28;20454;-68
2024/01/12 03:28:19;;;;;;;23.57;11.37;;;2.50;99.90;;;;;;4983183;28;20450;-68
2024/01/12 03:30:47;;;;;;;16.70;8.47;;;2.50;99.90;;;;;;4983960;28;20485;-67
2024/01/12 03:33:14;;;;;;;23.63;9.30;;;2.50;99.90;;;;;;4983151;28;20448;-67
2024/01/12 03:35:41;;;;;;;23.40;11.47;;;2.40;99.90;;;;;;4985897;28;20464;-68
2024/01/12 03:38:08;;;;;;;25.83;9.23;;;2.50;99.90;;;;;;4981518;28;20448;-68
2024/01/12 03:40:35;;;;;;;25.30;7.10;;;2.40;99.90;;;;;;4987281;28;20428;-68
2024/01/12 03:43:01;;;;;;;18.80;7.30;;;2.40;99.90;;;;;;4982791;28;20440;-69
2024/01/12 03:45:28;;;;;;;25.40;12.53;;;2.30;99.90;;;;;;4981491;28;20780;-69
2024/01/12 03:47:56;;;;;;;19.10;7.70;;;2.30;99.90;;;;;;4983425;28;20441;-68
2024/01/12 03:50:23;;;;;;;22.90;9.03;;;2.30;99.90;;;;;;4982773;28;20437;-67
2024/01/12 03:52:49;;;;;;;35.70;9.40;;;2.40;99.90;;;;;;4983788;28;20470;-67
2024/01/12 03:55:16;;;;;;;20.77;7.00;;;2.40;99.90;;;;;;4984102;28;20445;-69
2024/01/12 03:57:43;;;;;;;24.43;9.87;;;2.50;99.90;;;;;;4983621;28;20894;-68
2024/01/12 04:00:10;;;;;;;28.07;9.10;;;2.50;99.90;;;;;;4979768;28;20469;-67
2024/01/12 04:02:37;;;;;;;26.47;9.13;;;2.50;99.90;;;;;;4984585;28;20412;-68
2024/01/12 04:05:06;;;;;;;25.23;10.20;;;2.40;99.90;;;;;;4982364;28;20505;-67
2024/01/12 04:07:33;;;;;;;30.37;12.17;;;2.40;99.90;;;;;;4983365;28;20584;-68
2024/01/12 04:10:00;;;;;;;23.07;10.23;;;2.30;99.90;;;;;;4981183;28;20485;-68
2024/01/12 04:12:26;;;;;;;18.20;9.60;;;2.40;99.90;;;;;;4984763;28;20462;-68
2024/01/12 04:14:53;;;;;;;24.43;10.47;;;2.40;99.90;;;;;;4982679;28;20466;-68
2024/01/12 04:17:19;;;;;;;22.00;10.37;;;2.30;99.90;;;;;;4985954;28;20413;-67
2024/01/12 04:19:45;;;;;;;22.67;8.20;;;2.30;99.90;;;;;;4981593;28;20494;-68
2024/01/12 04:22:13;;;;;;;20.63;8.23;;;2.40;99.90;;;;;;4980913;28;20199;-68
2024/01/12 04:24:40;;;;;;;31.60;9.60;;;2.50;99.90;;;;;;4983896;28;20448;-67
2024/01/12 04:27:07;;;;;;;18.07;10.10;;;2.50;99.90;;;;;;4984401;28;20445;-68
2024/01/12 04:29:34;;;;;;;19.13;8.77;;;2.50;99.90;;;;;;4982863;28;20489;-68
2024/01/12 04:32:00;;;;;;;20.67;10.80;;;2.60;99.90;;;;;;4983522;28;20448;-67
2024/01/12 04:34:27;;;;;;;29.60;9.60;;;2.50;99.90;;;;;;4984910;28;20832;-68
2024/01/12 04:36:55;;;;;;;20.07;9.73;;;2.40;99.90;;;;;;4986665;28;20421;-67
2024/01/12 04:39:23;;;;;;;31.70;12.27;;;2.50;99.90;;;;;;4982362;28;20472;-67
2024/01/12 04:41:49;;;;;;;26.47;10.20;;;2.50;99.90;;;;;;4984338;28;20441;-69
2024/01/12 04:44:16;;;;;;;14.10;6.23;;;2.40;99.90;;;;;;4984609;28;20460;-68
2024/01/12 04:46:43;;;;;;;21.40;9.77;;;2.40;99.90;;;;;;4982163;28;20480;-68
2024/01/12 04:49:10;;;;;;;20.50;7.87;;;2.50;99.90;;;;;;4983500;28;20537;-67
2024/01/12 04:51:37;;;;;;;20.07;9.40;;;2.30;99.90;;;;;;4984703;28;20528;-68
2024/01/12 04:54:03;;;;;;;19.93;8.70;;;2.30;99.90;;;;;;4988270;28;20496;-68
2024/01/12 04:56:32;;;;;;;22.77;7.77;;;2.30;99.90;;;;;;4985076;28;20477;-68
2024/01/12 04:58:58;;;;;;;35.33;9.53;;;2.30;99.90;;;;;;4985828;28;20866;-69
2024/01/12 05:01:25;;;;;;;19.03;9.13;;;2.40;99.90;;;;;;4981171;28;20455;-68
2024/01/12 05:03:52;;;;;;;25.50;7.80;;;2.60;99.90;;;;;;4987265;28;20432;-68
2024/01/12 05:06:19;;;;;;;36.10;12.50;;;2.70;99.90;;;;;;4983533;28;20520;-67
2024/01/12 05:08:46;;;;;;;16.93;7.63;;;2.60;99.90;;;;;;4976557;28;20805;-68
2024/01/12 05:11:13;;;;;;;26.77;10.13;;;2.60;99.90;;;;;;4984261;28;20505;-68
2024/01/12 05:13:41;;;;;;;26.60;9.33;;;2.70;99.90;;;;;;4982356;28;20449;-68
2024/01/12 05:16:08;;;;;;;19.77;8.13;;;2.70;99.90;;;;;;4982825;28;20590;-68
2024/01/12 05:18:35;;;;;;;33.20;12.37;;;2.60;99.90;;;;;;4976926;28;20482;-67
2024/01/12 05:21:01;;;;;;;19.77;8.57;;;2.60;99.90;;;;;;4980371;28;20481;-68
2024/01/12 05:23:28;;;;;;;20.97;9.93;;;2.60;99.90;;;;;;4983137;28;20452;-67
2024/01/12 05:25:55;;;;;;;26.57;9.63;;;2.70;99.90;;;;;;4979495;28;21022;-69
2024/01/12 05:28:21;;;;;;;17.90;9.07;;;2.70;99.90;;;;;;4984176;28;20433;-68
2024/01/12 05:30:49;;;;;;;25.80;8.57;;;2.60;99.90;;;;;;4981446;28;20437;-67
2024/01/12 05:33:16;;;;;;;28.13;7.80;;;2.60;99.90;;;;;;4983793;28;20840;-68
2024/01/12 05:35:45;;;;;;;13.47;7.03;;;2.70;99.90;;;;;;4986229;28;20478;-68
2024/01/12 05:38:11;;;;;;;37.00;10.73;;;2.70;99.90;;;;;;4986752;28;20897;-69
2024/01/12 05:40:38;;;;;;;18.37;10.90;;;2.60;99.90;;;;;;4984040;28;20433;-68
2024/01/12 05:43:05;;;;;;;18.00;8.90;;;2.70;99.90;;;;;;4983335;28;20456;-68
2024/01/12 05:45:32;;;;;;;17.27;7.57;;;2.70;99.90;;;;;;4983730;28;20445;-68
2024/01/12 05:48:00;;;;;;;21.93;10.97;;;2.70;99.90;;;;;;4987816;28;20767;-68
2024/01/12 05:50:26;;;;;;;30.13;10.87;;;2.70;99.90;;;;;;4982020;28;20461;-68
2024/01/12 05:52:53;;;;;;;15.93;8.07;;;2.60;99.90;;;;;;4986737;28;20478;-68
2024/01/12 05:55:20;;;;;;;19.00;7.40;;;2.60;99.90;;;;;;4987052;28;20496;-68
2024/01/12 05:57:47;;;;;;;18.60;7.47;;;2.70;99.90;;;;;;4985206;28;20551;-68
2024/01/12 06:00:14;;;;;;;16.90;8.03;;;2.80;99.90;;;;;;4987172;28;20468;-69
2024/01/12 06:02:41;;;;;;;32.30;11.97;;;2.60;99.90;;;;;;4987178;28;20443;-67
2024/01/12 06:05:09;;;;;;;12.90;7.77;;;2.60;99.90;;;;;;4985640;28;20509;-68
2024/01/12 06:07:36;;;;;;;21.17;8.83;;;2.50;99.90;;;;;;4985726;28;20582;-68
2024/01/12 06:10:03;;;;;;;8.83;6.20;;;2.50;99.90;;;;;;4981636;28;20429;-68
2024/01/12 06:12:30;;;;;;;21.27;9.73;;;2.60;99.90;;;;;;4987993;28;21040;-68
2024/01/12 06:14:59;;;;;;;21.17;9.10;;;2.70;99.90;;;;;;4984204;28;20492;-68
2024/01/12 06:17:26;;;;;;;30.77;11.60;;;2.60;99.90;;;;;;4987435;28;20927;-67
2024/01/12 06:19:53;;;;;;;25.23;11.40;;;2.60;99.90;;;;;;4986663;28;20514;-68
2024/01/12 06:22:22;;;;;;;27.50;11.00;;;2.60;99.90;;;;;;4987695;28;20481;-69
2024/01/12 06:24:48;;;;;;;19.80;9.57;;;2.50;99.90;;;;;;4980628;28;20478;-68
2024/01/12 06:27:15;;;;;;;22.07;11.60;;;2.50;99.90;;;;;;4989208;28;20425;-68
2024/01/12 06:29:42;;;;;;;16.73;7.47;;;2.50;99.90;;;;;;4983255;28;20459;-68
2024/01/12 06:32:09;;;;;;;27.93;9.50;;;2.50;99.90;;;;;;4987675;28;20425;-68
2024/01/12 06:34:39;;;;;;;19.70;8.13;;;2.50;99.90;;;;;;4984093;28;20938;-68
2024/01/12 06:37:05;;;;;;;11.93;5.80;;;2.50;99.90;;;;;;4987524;28;20445;-67
2024/01/12 06:39:33;;;;;;;14.33;6.90;;;2.50;99.90;;;;;;4986191;28;20609;-69
2024/01/12 06:42:00;;;;;;;18.03;6.90;;;2.60;99.90;;;;;;4987703;28;20462;-67
2024/01/12 06:44:27;;;;;;;15.13;8.70;;;2.60;99.90;;;;;;4984284;28;20466;-67
2024/01/12 06:46:53;;;;;;;25.50;10.07;;;2.70;99.90;;;;;;4982523;28;20467;-68
2024/01/12 06:49:20;;;;;;;12.80;5.00;;;2.60;99.90;;;;;;4983645;28;20689;-67
2024/01/12 06:51:47;;;;;;;14.67;9.17;;;2.60;99.90;;;;;;4984488;28;20453;-68
2024/01/12 06:54:43;;;;;;;19.73;8.87;;;2.50;99.90;;;;;;4981816;28;20457;-68
2024/01/12 06:57:10;;;;;;;14.57;5.90;;;2.50;99.90;;;;;;4987128;28;20420;-67
2024/01/12 06:59:37;;;;;;;11.70;7.30;;;2.70;99.90;;;;;;4983954;28;20569;-67
2024/01/12 07:02:04;;;;;;;27.17;8.13;;;2.80;99.90;;;;;;4985222;28;20943;-67
2024/01/12 07:04:31;;;;;;;20.77;8.03;;;2.70;99.90;;;;;;4984995;28;20990;-68
2024/01/12 07:06:57;;;;;;;20.30;8.10;;;2.60;99.90;;;;;;4985522;28;20551;-68
2024/01/12 07:09:24;;;;;;;19.27;7.57;;;2.60;99.90;;;;;;4986720;28;20897;-68
2024/01/12 07:11:53;;;;;;;16.70;8.90;;;2.70;99.90;;;;;;4984459;28;20473;-67
2024/01/12 07:14:20;;;;;;;17.67;8.77;;;2.70;99.90;;;;;;4986791;28;20506;-66
2024/01/12 07:16:47;;;;;;;19.27;9.70;;;2.70;99.90;;;;;;4984085;28;20816;-67
2024/01/12 07:19:14;;;;;;;16.83;6.83;;;2.70;99.90;;;;;;4983167;28;20483;-68
2024/01/12 07:21:40;;;;;;;15.40;7.13;;;2.70;99.90;;;;;;4986382;28;20817;-67
2024/01/12 07:24:07;;;;;;;14.17;6.53;;;2.70;99.90;;;;;;4986170;28;20444;-68
2024/01/12 07:26:34;;;;;;;16.60;7.97;;;2.70;99.90;;;;;;4984036;28;20458;-67
2024/01/12 07:29:03;;;;;;;20.73;7.60;;;2.70;99.90;;;;;;4984332;28;20517;-67
2024/01/12 07:31:32;;;;;;;10.07;6.70;;;2.70;99.90;;;;;;4980815;28;20465;-67
2024/01/12 07:33:59;;;;;;;20.07;6.10;;;2.70;99.90;;;;;;4983869;28;20539;-68
2024/01/12 07:36:26;;;;;;;6.90;4.40;;;2.80;99.90;;;;;;4982072;28;20441;-67
2024/01/12 07:38:53;;;;;;;6.60;4.73;;;2.70;99.90;;;;;;4978118;28;20441;-68
2024/01/12 07:41:19;;;;;;;10.27;5.20;;;2.60;99.90;;;;;;4983744;28;20465;-68
2024/01/12 07:43:46;;;;;;;7.43;4.60;;;2.70;99.90;;;;;;4987312;28;20728;-68
2024/01/12 07:46:18;;;;;;;5.27;3.40;;;2.80;99.90;;;;;;4983466;28;20432;-69
2024/01/12 07:48:47;;;;;;;9.20;3.63;;;2.80;99.90;;;;;;4986993;28;20428;-68
2024/01/12 07:51:15;;;;;;;10.23;4.53;;;2.70;99.90;;;;;;4982798;28;20462;-68
2024/01/12 07:53:42;;;;;;;14.23;6.10;;;2.70;99.90;;;;;;4984675;28;20455;-68
2024/01/12 07:56:09;;;;;;;5.23;3.10;;;2.70;99.90;;;;;;4984200;28;20425;-68
2024/01/12 07:58:35;;;;;;;8.07;4.57;;;2.80;99.90;;;;;;4980910;28;20454;-68
2024/01/12 08:01:05;;;;;;;5.43;3.10;;;2.80;99.90;;;;;;4983653;28;20460;-70
2024/01/12 08:03:33;;;;;;;6.50;3.90;;;2.80;99.90;;;;;;4979949;28;20421;-68
2024/01/12 08:06:00;;;;;;;5.80;3.83;;;2.70;99.90;;;;;;4985810;28;20440;-68
2024/01/12 08:08:28;;;;;;;17.37;7.80;;;2.70;99.90;;;;;;4981367;28;20440;-68
2024/01/12 08:10:54;;;;;;;8.13;4.23;;;2.70;99.90;;;;;;4986099;28;20464;-68
2024/01/12 08:13:21;;;;;;;10.83;7.70;;;2.70;99.90;;;;;;4988345;28;20533;-68
2024/01/12 08:15:48;;;;;;;11.77;6.23;;;2.70;99.90;;;;;;4986591;28;20460;-68
2024/01/12 08:18:14;;;;;;;10.37;5.00;;;2.60;99.90;;;;;;4989073;28;20454;-68
2024/01/12 08:20:44;;;;;;;18.53;3.50;;;2.50;99.90;;;;;;4986226;28;20508;-68
2024/01/12 08:23:10;;;;;;;2.73;2.53;;;2.60;99.90;;;;;;4987067;28;20436;-68
2024/01/12 08:25:37;;;;;;;6.50;4.20;;;2.60;99.90;;;;;;4985951;28;20471;-68
2024/01/12 08:28:04;;;;;;;7.30;4.53;;;2.70;99.90;;;;;;4988576;28;20610;-68
2024/01/12 08:30:33;;;;;;;6.13;3.73;;;2.50;99.90;;;;;;4986453;28;20454;-68
2024/01/12 08:33:00;;;;;;;7.60;3.47;;;2.50;99.90;;;;;;4988759;28;20462;-67
2024/01/12 08:35:27;;;;;;;7.23;3.87;;;2.60;99.90;;;;;;4987716;28;20464;-67
2024/01/12 08:37:55;;;;;;;9.70;4.40;;;2.60;99.90;;;;;;4983137;28;20466;-68
2024/01/12 08:40:21;;;;;;;5.60;2.97;;;2.80;99.90;;;;;;4989464;28;20498;-68
2024/01/12 08:42:49;;;;;;;9.47;4.23;;;2.70;99.90;;;;;;4983358;28;20424;-69
2024/01/12 08:45:15;;;;;;;8.90;4.87;;;2.50;99.90;;;;;;4987942;28;21169;-68
2024/01/12 08:47:42;;;;;;;12.73;6.20;;;2.50;99.90;;;;;;4988802;28;20471;-68
2024/01/12 08:50:09;;;;;;;17.70;4.80;;;2.50;99.90;;;;;;4988548;28;20458;-68
2024/01/12 08:52:36;;;;;;;14.40;7.07;;;2.40;99.90;;;;;;4990492;28;20427;-67
2024/01/12 08:55:08;;;;;;;6.60;4.30;;;2.50;99.90;;;;;;4985625;28;20489;-67
2024/01/12 08:57:35;;;;;;;7.77;6.53;;;2.50;99.90;;;;;;4983200;28;20449;-68
2024/01/12 09:00:03;;;;;;;7.53;4.33;;;2.50;99.90;;;;;;4988348;28;20539;-67
2024/01/12 09:02:30;;;;;;;11.20;8.03;;;2.40;99.90;;;;;;4985292;28;20932;-68
2024/01/12 09:04:57;;;;;;;15.10;4.97;;;2.50;99.90;;;;;;4988020;28;20456;-67
2024/01/12 09:07:23;;;;;;;15.53;6.67;;;2.40;99.90;;;;;;4986575;28;20533;-67
2024/01/12 09:09:50;;;;;;;3.33;2.63;;;2.50;99.90;;;;;;4981848;28;20899;-67
2024/01/12 09:12:18;;;;;;;16.57;6.00;;;2.40;99.90;;;;;;4988839;28;20458;-67
2024/01/12 09:14:45;;;;;;;7.73;5.90;;;2.30;99.90;;;;;;4987835;28;20812;-67
2024/01/12 09:17:12;;;;;;;14.33;6.70;;;2.50;99.90;;;;;;4989334;28;20465;-68
2024/01/12 09:19:38;;;;;;;16.40;6.23;;;2.40;99.90;;;;;;4982643;28;20465;-67
2024/01/12 09:22:05;;;;;;;24.03;7.57;;;2.30;99.90;;;;;;4982340;28;20440;-67
2024/01/12 09:24:32;;;;;;;11.47;6.43;;;2.30;99.90;;;;;;4985092;28;20481;-67
2024/01/12 09:26:58;;;;;;;28.37;10.50;;;2.40;99.90;;;;;;4986480;28;20428;-67
2024/01/12 09:29:26;;;;;;;7.23;6.23;;;2.50;99.90;;;;;;4986728;28;20462;-67
2024/01/12 09:31:56;;;;;;;18.23;7.73;;;2.50;99.90;;;;;;4984784;28;20437;-67
2024/01/12 09:34:23;;;;;;;8.13;5.07;;;2.50;99.90;;;;;;4977621;28;20517;-67
2024/01/12 09:36:50;;;;;;;14.20;7.60;;;2.60;99.90;;;;;;4984907;28;20433;-66
2024/01/12 09:39:17;;;;;;;10.63;5.27;;;2.50;99.90;;;;;;4989333;28;20449;-67
2024/01/12 09:41:49;;;;;;;13.20;5.20;;;2.50;99.90;;;;;;4984880;28;20523;-67
2024/01/12 09:44:20;;;;;;;15.23;5.23;;;2.50;99.90;;;;;;4984876;28;20528;-66
2024/01/12 09:46:55;;;;;;;16.20;6.87;;;2.60;99.90;;;;;;4985578;28;20512;-67
2024/01/12 09:49:23;;;;;;;8.83;5.50;;;2.70;99.90;;;;;;4984397;28;20409;-67
2024/01/12 09:51:50;;;;;;;16.17;8.07;;;2.90;99.90;;;;;;4988547;28;20424;-66
2024/01/12 09:54:17;;;;;;;13.53;5.30;;;2.70;99.90;;;;;;4987516;28;20441;-67
2024/01/12 09:56:44;;;;;;;11.57;5.70;;;2.60;99.90;;;;;;4983755;28;20466;-66
2024/01/12 09:59:11;;;;;;;10.70;5.33;;;2.50;99.90;;;;;;4986816;28;20781;-67
2024/01/12 10:01:40;;;;;;;13.77;6.10;;;2.50;99.90;;;;;;4985701;28;20486;-67
2024/01/12 10:04:08;;;;;;;21.73;6.30;;;2.50;99.90;;;;;;4983960;28;20478;-67
2024/01/12 10:06:35;;;;;;;17.40;6.87;;;2.50;99.90;;;;;;4987590;28;20523;-67
2024/01/12 10:09:02;;;;;;;19.90;7.10;;;2.50;99.90;;;;;;4987033;28;20471;-67
2024/01/12 10:11:29;;;;;;;10.00;4.80;;;2.50;99.90;;;;;;4984954;28;20432;-67
2024/01/12 10:13:56;;;;;;;11.20;6.13;;;2.50;99.90;;;;;;4987240;28;20481;-66
2024/01/12 10:16:28;;;;;;;7.60;4.03;;;2.50;99.90;;;;;;4987827;28;20443;-67
2024/01/12 10:18:55;;;;;;;8.40;3.23;;;2.50;99.90;;;;;;4986031;28;20472;-66
2024/01/12 10:21:24;;;;;;;9.87;4.30;;;2.60;99.90;;;;;;4987854;28;20847;-67
2024/01/12 10:23:51;;;;;;;8.83;5.07;;;2.50;99.90;;;;;;4982363;28;21056;-67
2024/01/12 10:26:17;;;;;;;8.63;5.80;;;2.50;99.90;;;;;;4987598;28;20425;-67
2024/01/12 10:28:45;;;;;;;13.10;7.53;;;2.50;99.90;;;;;;4983521;28;20467;-67
2024/01/12 10:31:12;;;;;;;16.07;5.97;;;2.60;99.90;;;;;;4973135;28;20587;-67
2024/01/12 10:33:42;;;;;;;8.40;4.97;;;2.70;99.90;;;;;;4982447;28;20476;-67
2024/01/12 10:36:17;;;;;;;20.57;7.20;;;2.80;99.90;;;;;;4987329;28;20505;-66
2024/01/12 10:38:46;;;;;;;27.90;4.43;;;2.90;99.90;;;;;;4967636;28;20461;-67
2024/01/12 10:41:14;;;;;;;15.67;6.93;;;2.90;99.90;;;;;;4985737;28;20537;-68
2024/01/12 10:43:44;;;;;;;17.97;6.20;;;3.10;99.90;;;;;;4986367;28;20807;-67
2024/01/12 10:46:13;;;;;;;17.70;5.53;;;3.00;99.90;;;;;;4981808;28;20425;-67
2024/01/12 10:48:46;;;;;;;6.23;4.93;;;3.20;99.90;;;;;;4980240;28;20462;-68
2024/01/12 10:51:15;;;;;;;11.33;3.53;;;3.30;99.90;;;;;;4984261;28;20508;-68
2024/01/12 10:53:53;;;;;;;34.33;7.20;;;3.20;99.90;;;;;;4983172;28;20577;-68
2024/01/12 10:56:22;;;;;;;20.33;8.50;;;3.30;99.90;;;;;;4987821;28;20838;-69
2024/01/12 10:58:50;;;;;;;12.93;5.60;;;3.30;99.90;;;;;;4987011;28;20791;-68
2024/01/12 11:01:17;;;;;;;6.40;2.17;;;3.20;99.90;;;;;;4983100;28;20497;-68
2024/01/12 11:03:45;;;;;;;8.60;4.43;;;3.10;99.90;;;;;;4985320;28;20451;-68
2024/01/12 11:06:16;;;;;;;20.17;3.20;;;3.20;99.90;;;;;;4984369;28;20437;-68
2024/01/12 11:08:44;;;;;;;15.40;4.93;;;3.20;99.90;;;;;;4983420;28;20554;-68
2024/01/12 11:11:19;;;;;;;12.83;7.00;;;3.20;99.90;;;;;;4984318;28;20814;-68
2024/01/12 11:13:47;;;;;;;7.47;3.70;;;3.20;99.90;;;;;;4977281;28;20427;-68
2024/01/12 11:16:14;;;;;;;11.07;5.33;;;3.30;99.90;;;;;;4986153;28;20556;-67
2024/01/12 11:18:40;;;;;;;9.23;4.93;;;3.30;99.90;;;;;;4982490;28;20465;-67
2024/01/12 11:21:07;;;;;;;6.60;3.70;;;3.30;99.90;;;;;;4981318;28;20459;-68
2024/01/12 11:23:40;;;;;;;12.53;6.97;;;3.30;99.90;;;;;;4983142;28;20433;-67
2024/01/12 11:26:06;;;;;;;10.10;5.53;;;3.20;99.90;;;;;;4984160;28;20525;-68
2024/01/12 11:28:38;;;;;;;9.27;5.20;;;3.20;99.90;;;;;;4983196;28;20432;-68
2024/01/12 11:31:06;;;;;;;12.87;5.60;;;3.10;99.90;;;;;;4982098;28;20461;-68
2024/01/12 11:33:41;;;;;;;34.33;8.90;;;3.30;99.90;;;;;;4982155;28;20484;-69
2024/01/12 11:36:17;;;;;;;17.23;9.53;;;3.30;99.90;;;;;;4983256;28;20462;-68
2024/01/12 11:38:44;;;;;;;19.73;6.13;;;3.30;99.90;;;;;;4985199;28;20456;-67
2024/01/12 11:41:12;;;;;;;20.03;9.00;;;3.40;99.90;;;;;;4975338;28;20492;-68
2024/01/12 11:43:40;;;;;;;8.60;6.23;;;3.30;99.90;;;;;;4985135;28;20810;-68
2024/01/12 11:46:07;;;;;;;19.93;8.53;;;3.30;99.90;;;;;;4982526;28;20480;-68
2024/01/12 11:48:34;;;;;;;12.33;7.60;;;3.40;99.90;;;;;;4971355;28;20466;-67
2024/01/12 11:51:00;;;;;;;17.03;9.97;;;3.30;99.90;;;;;;4975234;28;20448;-68
2024/01/12 11:53:28;;;;;;;20.73;6.43;;;3.20;99.90;;;;;;4985898;28;20488;-67
2024/01/12 11:55:54;;;;;;;17.50;9.97;;;3.10;99.90;;;;;;4987073;28;20905;-68
2024/01/12 11:58:22;;;;;;;15.60;7.10;;;3.20;99.90;;;;;;4980358;28;20438;-69
2024/01/12 12:00:53;;;;;;;23.30;9.40;;;3.20;99.90;;;;;;4986395;28;20493;-69
2024/01/12 12:03:23;;;;;;;18.00;7.43;;;3.10;99.90;;;;;;4982467;28;20438;-68
2024/01/12 12:05:50;;;;;;;22.83;8.17;;;3.00;99.90;;;;;;4979938;28;20453;-68
2024/01/12 12:08:16;;;;;;;27.97;10.40;;;3.00;99.90;;;;;;4981572;28;20429;-69
2024/01/12 12:10:43;;;;;;;14.80;7.60;;;3.10;99.90;;;;;;4974688;28;20547;-69
2024/01/12 12:13:10;;;;;;;18.43;7.70;;;3.10;99.90;;;;;;4981408;28;20436;-68
2024/01/12 12:15:37;;;;;;;23.57;9.57;;;3.20;99.90;;;;;;4982126;28;20504;-68
2024/01/12 12:18:06;;;;;;;16.50;12.27;;;3.30;99.90;;;;;;4980868;28;20421;-68
2024/01/12 12:20:33;;;;;;;9.40;5.20;;;3.20;99.90;;;;;;4982855;28;20581;-68
2024/01/12 12:23:00;;;;;;;21.57;11.23;;;3.20;99.90;;;;;;4981880;28;20437;-68
2024/01/12 12:25:27;;;;;;;13.37;9.03;;;3.10;99.90;;;;;;4985094;28;20504;-68
2024/01/12 12:27:54;;;;;;;20.37;10.77;;;3.10;99.90;;;;;;4982117;28;20458;-67
2024/01/12 12:30:21;;;;;;;28.47;12.50;;;3.10;99.90;;;;;;4986661;28;20432;-68
2024/01/12 12:32:48;;;;;;;21.30;9.60;;;3.10;99.90;;;;;;4983224;28;20433;-68
2024/01/12 12:35:18;;;;;;;17.43;8.27;;;3.00;99.90;;;;;;4974630;28;20553;-68
2024/01/12 12:37:46;;;;;;;22.83;12.80;;;3.00;99.90;;;;;;4984933;28;20537;-67
2024/01/12 12:40:13;;;;;;;24.03;9.60;;;3.00;99.90;;;;;;4986152;28;20576;-68
2024/01/12 12:42:41;;;;;;;14.47;7.40;;;3.00;99.90;;;;;;4980713;28;20470;-68
2024/01/12 12:45:09;;;;;;;29.07;11.90;;;3.10;99.90;;;;;;4980057;28;20476;-68
2024/01/12 12:47:37;;;;;;;14.90;7.50;;;3.10;99.90;;;;;;4980940;28;20454;-70